createdAt,value
2023-05-04T00:00:17.107Z,77.47
2023-05-04T00:02:43.769Z,77.66
2023-05-04T00:05:12.192Z,77.86
2023-05-04T00:07:39.076Z,77.97
2023-05-04T00:10:06.812Z,78.14
2023-05-04T00:12:33.813Z,78.25
2023-05-04T00:15:00.576Z,78.21
2023-05-04T00:17:27.263Z,78.36
2023-05-04T00:19:54.069Z,78.51
2023-05-04T00:22:20.833Z,78.61
2023-05-04T00:24:47.602Z,78.82
2023-05-04T00:27:14.274Z,79.08
2023-05-04T00:29:40.904Z,79.24
2023-05-04T00:32:07.734Z,79.35
2023-05-04T00:34:34.559Z,79.35
2023-05-04T00:37:01.348Z,79.38
2023-05-04T00:39:28.225Z,79.32
2023-05-04T00:41:54.930Z,79.41
2023-05-04T00:44:24.106Z,79.47
2023-05-04T00:46:52.667Z,79.47
2023-05-04T00:49:21.387Z,79.67
2023-05-04T00:51:49.041Z,79.87
2023-05-04T00:54:18.939Z,80.01
2023-05-04T00:56:45.931Z,80.28
2023-05-04T00:59:14.061Z,80.53
2023-05-04T01:01:41.443Z,80.72
2023-05-04T01:04:08.352Z,80.72
2023-05-04T01:06:44.156Z,80.75
2023-05-04T01:09:31.347Z,81.04
2023-05-04T01:12:08.434Z,81.44
2023-05-04T01:14:35.943Z,81.53
2023-05-04T01:17:04.997Z,81.61
2023-05-04T01:19:32.022Z,81.84
2023-05-04T01:21:58.729Z,81.64
2023-05-04T01:24:25.907Z,81.53
2023-05-04T01:26:55.997Z,81.62
2023-05-04T01:29:30.249Z,81.67
2023-05-04T01:31:57.090Z,81.66
2023-05-04T01:34:24.047Z,81.69
2023-05-04T01:36:50.706Z,81.80
2023-05-04T01:39:17.323Z,82.05
2023-05-04T01:41:44.035Z,82.18
2023-05-04T01:44:11.167Z,82.03
2023-05-04T01:46:37.893Z,82.15
2023-05-04T01:49:07.206Z,82.27
2023-05-04T01:51:33.792Z,82.23
2023-05-04T01:54:00.598Z,82.23
2023-05-04T01:56:27.244Z,82.16
2023-05-04T01:58:53.864Z,82.39
2023-05-04T02:01:21.243Z,82.61
2023-05-04T02:03:48.279Z,82.82
2023-05-04T02:06:15.133Z,82.96
2023-05-04T02:08:42.506Z,83.14
2023-05-04T02:11:09.226Z,83.17
2023-05-04T02:13:36.644Z,83.19
2023-05-04T02:16:03.524Z,83.31
2023-05-04T02:18:30.296Z,83.28
2023-05-04T02:20:57.017Z,83.32
2023-05-04T02:23:23.680Z,83.35
2023-05-04T02:25:52.243Z,83.47
2023-05-04T02:28:18.906Z,83.70
2023-05-04T02:30:45.935Z,83.90
2023-05-04T02:33:12.644Z,83.96
2023-05-04T02:35:39.269Z,83.96
2023-05-04T02:38:06.081Z,84.03
2023-05-04T02:40:33.286Z,84.12
2023-05-04T02:43:00.023Z,84.09
2023-05-04T02:45:26.758Z,84.20
2023-05-04T02:47:54.016Z,84.36
2023-05-04T02:50:20.937Z,84.44
2023-05-04T02:52:47.541Z,84.54
2023-05-04T02:55:14.341Z,84.62
2023-05-04T02:57:41.108Z,84.80
2023-05-04T03:00:08.595Z,84.85
2023-05-04T03:02:35.343Z,84.86
2023-05-04T03:05:02.112Z,84.85
2023-05-04T03:07:28.906Z,84.98
2023-05-04T03:09:55.551Z,85.16
2023-05-04T03:12:22.162Z,85.20
2023-05-04T03:14:48.830Z,85.20
2023-05-04T03:17:15.524Z,85.13
2023-05-04T03:19:42.629Z,85.20
2023-05-04T03:22:09.760Z,85.06
2023-05-04T03:24:37.889Z,84.96
2023-05-04T03:27:04.529Z,85.00
2023-05-04T03:29:31.779Z,85.19
2023-05-04T03:31:58.675Z,85.47
2023-05-04T03:34:25.392Z,85.49
2023-05-04T03:36:55.582Z,85.68
2023-05-04T03:39:22.272Z,86.02
2023-05-04T03:41:49.734Z,86.31
2023-05-04T03:44:16.416Z,86.75
2023-05-04T03:46:44.215Z,86.90
2023-05-04T03:49:11.327Z,86.98
2023-05-04T03:51:38.694Z,87.25
2023-05-04T03:54:06.107Z,87.58
2023-05-04T03:56:32.809Z,87.69
2023-05-04T03:58:59.520Z,87.58
2023-05-04T04:01:29.066Z,87.55
2023-05-04T04:03:56.679Z,87.48
2023-05-04T04:06:23.552Z,87.29
2023-05-04T04:08:50.247Z,87.16
2023-05-04T04:11:16.896Z,86.82
2023-05-04T04:13:43.541Z,84.85
2023-05-04T04:16:10.515Z,81.90
2023-05-04T04:18:37.209Z,79.57
2023-05-04T04:21:03.976Z,77.69
2023-05-04T04:23:31.216Z,75.99
2023-05-04T04:25:58.480Z,74.53
2023-05-04T04:28:25.100Z,72.35
2023-05-04T04:30:51.776Z,70.07
2023-05-04T04:33:18.553Z,68.92
2023-05-04T04:35:45.254Z,68.47
2023-05-04T04:38:11.964Z,68.43
2023-05-04T04:40:38.752Z,67.87
2023-05-04T04:43:05.700Z,67.36
2023-05-04T04:45:33.791Z,66.01
2023-05-04T04:48:01.124Z,64.73
2023-05-04T04:50:29.194Z,63.91
2023-05-04T04:52:56.260Z,63.05
2023-05-04T04:55:25.955Z,61.85
2023-05-04T04:57:53.160Z,60.98
2023-05-04T05:00:20.416Z,60.31
2023-05-04T05:02:47.113Z,60.48
2023-05-04T05:05:13.895Z,60.90
2023-05-04T05:07:40.740Z,61.10
2023-05-04T05:10:08.706Z,61.30
2023-05-04T05:12:35.900Z,61.36
2023-05-04T05:15:04.551Z,61.90
2023-05-04T05:17:31.497Z,62.50
2023-05-04T05:19:58.217Z,63.05
2023-05-04T05:22:25.131Z,63.64
2023-05-04T05:24:51.971Z,63.90
2023-05-04T05:27:18.602Z,64.16
2023-05-04T05:29:45.738Z,64.04
2023-05-04T05:32:12.543Z,63.39
2023-05-04T05:34:39.193Z,63.37
2023-05-04T05:37:05.854Z,63.89
2023-05-04T05:39:32.485Z,64.59
2023-05-04T05:41:59.443Z,64.95
2023-05-04T05:44:26.099Z,65.60
2023-05-04T05:46:52.920Z,65.88
2023-05-04T05:49:19.842Z,65.72
2023-05-04T05:51:46.501Z,65.81
2023-05-04T05:54:13.193Z,65.79
2023-05-04T05:56:39.795Z,65.50
2023-05-04T05:59:06.659Z,64.94
2023-05-04T06:01:33.387Z,64.74
2023-05-04T06:04:00.359Z,64.33
2023-05-04T06:06:27.225Z,63.61
2023-05-04T06:08:53.851Z,62.55
2023-05-04T06:11:21.333Z,62.05
2023-05-04T06:13:47.993Z,61.14
2023-05-04T06:16:14.801Z,59.58
2023-05-04T06:18:41.652Z,57.55
2023-05-04T06:21:09.055Z,56.22
2023-05-04T06:23:36.839Z,54.80
2023-05-04T06:26:08.023Z,52.38
2023-05-04T06:28:34.982Z,52.18
2023-05-04T06:31:02.387Z,52.63
2023-05-04T06:33:29.061Z,51.74
2023-05-04T06:35:55.722Z,51.63
2023-05-04T06:38:22.544Z,51.00
2023-05-04T06:40:49.169Z,50.65
2023-05-04T06:43:16.021Z,50.54
2023-05-04T06:45:43.369Z,50.06
2023-05-04T06:48:10.392Z,50.08
2023-05-04T06:50:37.155Z,50.03
2023-05-04T06:53:05.929Z,49.80
2023-05-04T06:55:32.568Z,48.97
2023-05-04T06:57:59.288Z,48.18
2023-05-04T07:00:26.151Z,48.04
2023-05-04T07:02:53.822Z,48.58
2023-05-04T07:05:21.461Z,48.57
2023-05-04T07:07:51.184Z,48.75
2023-05-04T07:10:19.638Z,49.19
2023-05-04T07:12:47.000Z,48.95
2023-05-04T07:15:13.893Z,48.87
2023-05-04T07:17:41.160Z,48.66
2023-05-04T07:20:08.618Z,49.32
2023-05-04T07:22:35.468Z,49.15
2023-05-04T07:25:02.220Z,49.16
2023-05-04T07:27:29.103Z,49.09
2023-05-04T07:29:55.943Z,48.33
2023-05-04T07:32:22.935Z,47.73
2023-05-04T07:34:49.729Z,47.63
2023-05-04T07:37:16.473Z,47.62
2023-05-04T07:39:43.107Z,47.63
2023-05-04T07:42:11.626Z,47.18
2023-05-04T07:44:38.348Z,46.60
2023-05-04T07:47:04.990Z,46.35
2023-05-04T07:49:31.615Z,46.12
2023-05-04T07:51:58.379Z,45.40
2023-05-04T07:54:25.005Z,44.74
2023-05-04T07:56:51.917Z,44.08
2023-05-04T07:59:21.767Z,43.36
2023-05-04T08:01:48.791Z,42.52
2023-05-04T08:04:15.978Z,42.42
2023-05-04T08:06:42.603Z,42.22
2023-05-04T08:09:09.552Z,41.48
2023-05-04T08:11:37.956Z,41.68
2023-05-04T08:14:05.063Z,41.47
2023-05-04T08:16:32.465Z,41.38
2023-05-04T08:19:01.240Z,40.97
2023-05-04T08:21:28.111Z,41.29
2023-05-04T08:23:54.984Z,40.61
2023-05-04T08:26:21.721Z,40.09
2023-05-04T08:28:49.042Z,39.63
2023-05-04T08:31:16.840Z,39.59
2023-05-04T08:33:43.712Z,39.86
2023-05-04T08:36:10.401Z,39.90
2023-05-04T08:38:37.071Z,39.69
2023-05-04T08:41:04.516Z,40.59
2023-05-04T08:43:34.236Z,40.82
2023-05-04T08:46:00.965Z,40.19
2023-05-04T08:48:27.715Z,40.11
2023-05-04T08:50:54.331Z,40.25
2023-05-04T08:53:21.608Z,40.30
2023-05-04T08:55:48.324Z,39.77
2023-05-04T08:58:15.870Z,39.59
2023-05-04T09:00:43.656Z,39.78
2023-05-04T09:03:10.559Z,39.24
2023-05-04T09:05:38.443Z,39.31
2023-05-04T09:08:05.745Z,39.34
2023-05-04T09:10:33.599Z,38.60
2023-05-04T09:13:00.792Z,38.80
2023-05-04T09:15:29.400Z,39.00
2023-05-04T09:18:07.841Z,39.58
2023-05-04T09:20:48.025Z,38.95
2023-05-04T09:23:16.595Z,39.57
2023-05-04T09:25:48.967Z,39.49
2023-05-04T09:28:17.139Z,40.19
2023-05-04T09:30:45.027Z,40.47
2023-05-04T09:33:12.970Z,40.15
2023-05-04T09:35:41.352Z,40.38
2023-05-04T09:39:11.795Z,39.93
2023-05-04T09:41:39.657Z,39.94
2023-05-04T09:44:07.291Z,39.53
2023-05-04T09:46:36.547Z,39.53
2023-05-04T09:49:03.822Z,39.43
2023-05-04T09:51:30.423Z,38.58
2023-05-04T09:53:58.236Z,38.99
2023-05-04T09:56:35.685Z,39.31
2023-05-04T09:59:02.999Z,38.44
2023-05-04T10:01:29.881Z,38.01
2023-05-04T10:03:57.026Z,38.68
2023-05-04T10:06:24.134Z,38.81
2023-05-04T10:08:51.148Z,38.99
2023-05-04T10:11:19.272Z,38.26
2023-05-04T10:13:47.095Z,37.30
2023-05-04T10:16:20.650Z,36.67
2023-05-04T10:18:59.313Z,33.48
2023-05-04T10:21:58.889Z,32.83
2023-05-04T10:24:51.586Z,32.19
2023-05-04T10:27:20.082Z,31.52
2023-05-04T10:29:50.860Z,32.13
2023-05-04T10:32:21.277Z,32.18
2023-05-04T10:34:48.182Z,32.19
2023-05-04T10:37:19.096Z,32.39
2023-05-04T10:39:55.271Z,32.22
2023-05-04T10:42:22.344Z,31.26
2023-05-04T10:44:53.369Z,30.33
2023-05-04T10:47:32.680Z,30.68
2023-05-04T10:50:04.821Z,30.82
2023-05-04T10:52:32.993Z,30.87
2023-05-04T10:55:05.552Z,30.87
2023-05-04T10:57:32.440Z,31.37
2023-05-04T10:59:59.164Z,31.60
2023-05-04T11:02:26.641Z,31.73
2023-05-04T11:05:04.588Z,30.79
2023-05-04T11:07:38.640Z,30.55
2023-05-04T11:10:10.590Z,30.41
2023-05-04T11:12:37.778Z,29.78
2023-05-04T11:15:10.401Z,29.52
2023-05-04T11:17:47.549Z,29.03
2023-05-04T11:20:24.454Z,29.08
2023-05-04T11:22:51.355Z,28.69
2023-05-04T11:25:18.225Z,28.29
2023-05-04T11:27:49.066Z,28.31
2023-05-04T11:30:17.284Z,27.39
2023-05-04T11:32:46.637Z,27.03
2023-05-04T11:35:18.742Z,26.22
2023-05-04T11:37:46.345Z,25.96
2023-05-04T11:40:22.037Z,25.44
2023-05-04T11:42:50.140Z,25.17
2023-05-04T11:45:18.384Z,25.09
2023-05-04T11:47:45.705Z,24.56
2023-05-04T11:50:13.783Z,24.28
2023-05-04T11:52:41.647Z,23.79
2023-05-04T11:55:09.886Z,23.69
2023-05-04T11:57:39.855Z,22.75
2023-05-04T12:00:08.406Z,22.81
2023-05-04T12:02:35.421Z,23.48
2023-05-04T12:05:02.195Z,23.87
2023-05-04T12:07:28.885Z,23.73
2023-05-04T12:09:55.578Z,23.07
2023-05-04T12:12:22.301Z,23.15
2023-05-04T12:14:49.856Z,22.91
2023-05-04T12:17:16.547Z,23.05
2023-05-04T12:19:54.296Z,22.67
2023-05-04T12:22:30.380Z,22.82
2023-05-04T12:24:58.714Z,22.86
2023-05-04T12:27:27.877Z,23.28
2023-05-04T12:29:54.967Z,23.51
2023-05-04T12:32:21.626Z,23.48
2023-05-04T12:34:48.285Z,23.40
2023-05-04T12:37:15.347Z,23.58
2023-05-04T12:39:42.794Z,23.38
2023-05-04T12:42:09.700Z,23.44
2023-05-04T12:44:36.369Z,23.30
2023-05-04T12:47:03.440Z,22.57
2023-05-04T12:49:30.058Z,22.75
2023-05-04T12:51:58.148Z,22.61
2023-05-04T12:54:24.847Z,22.79
2023-05-04T12:56:51.521Z,22.99
2023-05-04T12:59:18.126Z,22.61
2023-05-04T13:01:44.894Z,22.54
2023-05-04T13:04:11.514Z,23.05
2023-05-04T13:06:38.464Z,22.94
2023-05-04T13:09:06.002Z,23.49
2023-05-04T13:11:33.041Z,23.99
2023-05-04T13:13:59.924Z,24.38
2023-05-04T13:16:28.169Z,24.85
2023-05-04T13:18:55.569Z,24.77
2023-05-04T13:21:22.396Z,25.17
2023-05-04T13:23:49.209Z,25.36
2023-05-04T13:26:15.930Z,25.41
2023-05-04T13:28:42.763Z,29.53
2023-05-04T13:31:10.357Z,32.30
2023-05-04T13:33:38.859Z,33.56
2023-05-04T13:36:06.921Z,33.65
2023-05-04T13:38:33.741Z,33.80
2023-05-04T13:41:00.481Z,33.94
2023-05-04T13:43:28.038Z,33.68
2023-05-04T13:45:57.096Z,29.32
2023-05-04T13:48:25.735Z,26.36
2023-05-04T13:50:52.885Z,25.02
2023-05-04T13:53:19.549Z,24.38
2023-05-04T13:55:46.852Z,24.25
2023-05-04T13:58:13.514Z,24.08
2023-05-04T14:00:40.325Z,25.49
2023-05-04T14:03:07.114Z,32.05
2023-05-04T14:05:35.572Z,34.21
2023-05-04T14:08:02.974Z,34.53
2023-05-04T14:10:29.752Z,36.45
2023-05-04T14:12:56.421Z,38.56
2023-05-04T14:15:23.218Z,39.73
2023-05-04T14:17:50.210Z,40.66
2023-05-04T14:20:17.150Z,41.05
2023-05-04T14:22:44.388Z,41.76
2023-05-04T14:25:11.439Z,42.40
2023-05-04T14:27:38.050Z,43.17
2023-05-04T14:30:05.554Z,43.75
2023-05-04T14:32:32.361Z,43.77
2023-05-04T14:35:07.798Z,44.04
2023-05-04T14:37:36.380Z,44.77
2023-05-04T14:40:06.433Z,45.32
2023-05-04T14:42:33.291Z,45.70
2023-05-04T14:44:59.879Z,46.30
2023-05-04T14:47:27.584Z,46.62
2023-05-04T14:49:54.391Z,46.98
2023-05-04T14:52:21.373Z,47.66
2023-05-04T14:54:48.048Z,48.32
2023-05-04T14:57:14.709Z,48.55
2023-05-04T14:59:42.129Z,48.95
2023-05-04T15:02:09.240Z,49.32
2023-05-04T15:04:36.395Z,49.35
2023-05-04T15:07:04.402Z,49.88
2023-05-04T15:09:31.304Z,49.93
2023-05-04T15:11:58.753Z,50.31
2023-05-04T15:14:26.451Z,51.12
2023-05-04T15:16:53.176Z,51.81
2023-05-04T15:19:21.210Z,52.47
2023-05-04T15:21:49.077Z,52.91
2023-05-04T15:24:15.667Z,53.49
2023-05-04T15:26:42.248Z,53.67
2023-05-04T15:29:09.009Z,53.64
2023-05-04T15:31:35.825Z,54.05
2023-05-04T15:34:02.901Z,54.26
2023-05-04T15:36:31.864Z,54.36
2023-05-04T15:38:58.566Z,54.51
2023-05-04T15:41:25.330Z,54.57
2023-05-04T15:43:51.979Z,54.59
2023-05-04T15:46:18.597Z,54.76
2023-05-04T15:48:45.508Z,54.91
2023-05-04T15:51:12.319Z,55.39
2023-05-04T15:53:39.163Z,55.87
2023-05-04T15:56:06.392Z,56.36
2023-05-04T15:58:33.251Z,57.02
2023-05-04T16:01:03.860Z,57.13
2023-05-04T16:03:31.667Z,57.59
2023-05-04T16:05:58.748Z,57.78
2023-05-04T16:08:25.903Z,58.03
2023-05-04T16:10:53.664Z,58.27
2023-05-04T16:13:21.045Z,58.55
2023-05-04T16:15:53.984Z,58.38
2023-05-04T16:18:20.779Z,58.48
2023-05-04T16:20:47.659Z,58.54
2023-05-04T16:23:15.646Z,58.62
2023-05-04T16:25:42.393Z,58.72
2023-05-04T16:28:09.035Z,58.79
2023-05-04T16:30:36.025Z,58.80
2023-05-04T16:33:03.416Z,59.13
2023-05-04T16:35:31.058Z,58.92
2023-05-04T16:37:58.376Z,59.13
2023-05-04T16:40:25.199Z,59.17
2023-05-04T16:42:51.899Z,59.11
2023-05-04T16:45:18.628Z,59.35
2023-05-04T16:47:45.908Z,59.45
2023-05-04T16:50:12.926Z,59.67
2023-05-04T16:52:39.948Z,59.66
2023-05-04T16:55:10.021Z,59.45
2023-05-04T16:57:38.166Z,59.49
2023-05-04T17:00:06.802Z,59.46
2023-05-04T17:02:33.881Z,59.42
2023-05-04T17:05:00.943Z,59.67
2023-05-04T17:07:27.580Z,59.84
2023-05-04T17:09:54.186Z,59.92
2023-05-04T17:12:23.352Z,59.87
2023-05-04T17:14:50.179Z,60.03
2023-05-04T17:17:16.836Z,60.10
2023-05-04T17:19:43.481Z,60.15
2023-05-04T17:22:11.287Z,60.29
2023-05-04T17:24:38.041Z,60.17
2023-05-04T17:27:04.693Z,60.06
2023-05-04T17:29:31.349Z,59.94
2023-05-04T17:31:58.033Z,59.97
2023-05-04T17:34:24.813Z,59.83
2023-05-04T17:36:51.723Z,60.00
2023-05-04T17:39:19.006Z,60.01
2023-05-04T17:41:48.986Z,60.24
2023-05-04T17:44:16.544Z,60.51
2023-05-04T17:46:43.804Z,60.73
2023-05-04T17:49:10.507Z,60.66
2023-05-04T17:51:37.370Z,60.70
2023-05-04T17:54:04.034Z,60.62
2023-05-04T17:56:30.841Z,60.38
2023-05-04T17:58:57.440Z,60.22
2023-05-04T18:01:24.212Z,60.12
2023-05-04T18:03:51.097Z,60.33
2023-05-04T18:06:17.959Z,60.55
2023-05-04T18:08:44.625Z,60.67
2023-05-04T18:11:11.935Z,60.57
2023-05-04T18:13:38.546Z,60.51
2023-05-04T18:16:05.557Z,60.33
2023-05-04T18:18:32.241Z,60.41
2023-05-04T18:21:00.729Z,60.38
2023-05-04T18:23:27.498Z,60.28
2023-05-04T18:25:54.172Z,60.39
2023-05-04T18:28:20.824Z,60.54
2023-05-04T18:30:47.700Z,60.48
2023-05-04T18:33:14.393Z,60.49
2023-05-04T18:35:41.322Z,60.33
2023-05-04T18:38:08.050Z,60.17
2023-05-04T18:40:34.715Z,59.87
2023-05-04T18:43:01.617Z,60.03
2023-05-04T18:45:29.250Z,60.06
2023-05-04T18:47:56.180Z,60.07
2023-05-04T18:50:22.987Z,60.09
2023-05-04T18:52:49.697Z,59.99
2023-05-04T18:55:16.532Z,60.03
2023-05-04T18:57:43.574Z,60.00
2023-05-04T19:00:11.701Z,60.21
2023-05-04T19:02:38.618Z,60.37
2023-05-04T19:05:05.678Z,60.50
2023-05-04T19:07:32.500Z,60.47
2023-05-04T19:09:59.262Z,60.59
2023-05-04T19:12:26.169Z,60.75
2023-05-04T19:14:52.929Z,61.06
2023-05-04T19:17:19.925Z,61.14
2023-05-04T19:19:46.945Z,61.24
2023-05-04T19:22:15.577Z,61.38
2023-05-04T19:24:42.270Z,61.46
2023-05-04T19:27:09.543Z,61.49
2023-05-04T19:29:36.488Z,61.36
2023-05-04T19:32:11.882Z,61.45
2023-05-04T19:34:45.190Z,61.60
2023-05-04T19:37:12.159Z,61.30
2023-05-04T19:39:38.890Z,61.21
2023-05-04T19:42:06.237Z,61.16
2023-05-04T19:44:32.985Z,61.06
2023-05-04T19:46:59.636Z,60.83
2023-05-04T19:49:26.639Z,60.42
2023-05-04T19:51:53.568Z,60.20
2023-05-04T19:54:20.811Z,59.96
2023-05-04T19:56:47.487Z,59.56
2023-05-04T19:59:14.363Z,59.39
2023-05-04T20:01:40.962Z,59.48
2023-05-04T20:04:08.486Z,59.56
2023-05-04T20:06:35.891Z,59.50
2023-05-04T20:09:03.985Z,59.70
2023-05-04T20:11:30.725Z,59.77
2023-05-04T20:13:57.483Z,59.92
2023-05-04T20:16:24.145Z,60.05
2023-05-04T20:18:51.158Z,60.13
2023-05-04T20:21:17.742Z,60.21
2023-05-04T20:23:44.606Z,60.30
2023-05-04T20:26:11.489Z,60.55
2023-05-04T20:28:38.680Z,60.45
2023-05-04T20:31:05.627Z,60.49
2023-05-04T20:33:32.263Z,60.39
2023-05-04T20:35:58.885Z,60.17
2023-05-04T20:38:25.961Z,60.12
2023-05-04T20:40:52.867Z,60.15
2023-05-04T20:43:19.842Z,59.75
2023-05-04T20:45:46.501Z,59.58
2023-05-04T20:48:13.308Z,59.58
2023-05-04T20:50:40.384Z,59.51
2023-05-04T20:53:07.038Z,59.53
2023-05-04T20:55:33.819Z,59.50
2023-05-04T20:58:00.414Z,59.69
2023-05-04T21:00:27.199Z,59.69
2023-05-04T21:02:54.822Z,59.70
2023-05-04T21:05:21.701Z,59.78
2023-05-04T21:07:48.301Z,60.01
2023-05-04T21:10:15.705Z,59.84
2023-05-04T21:12:42.400Z,59.48
2023-05-04T21:15:10.235Z,59.53
2023-05-04T21:17:36.937Z,59.78
2023-05-04T21:20:04.348Z,59.79
2023-05-04T21:22:31.283Z,60.03
2023-05-04T21:24:58.073Z,59.89
2023-05-04T21:27:24.672Z,59.76
2023-05-04T21:29:51.277Z,59.62
2023-05-04T21:32:17.861Z,59.74
2023-05-04T21:34:44.507Z,59.70
2023-05-04T21:37:11.123Z,59.85
2023-05-04T21:39:37.741Z,60.04
2023-05-04T21:42:04.714Z,60.13
2023-05-04T21:44:31.442Z,60.19
2023-05-04T21:46:58.170Z,60.53
2023-05-04T21:49:24.868Z,60.76
2023-05-04T21:51:51.443Z,61.32
2023-05-04T21:57:06.826Z,61.85
2023-05-04T21:59:33.490Z,61.85
2023-05-04T22:02:00.148Z,61.88
2023-05-04T22:04:27.337Z,61.97
2023-05-04T22:06:53.926Z,62.00
2023-05-04T22:09:20.565Z,62.13
2023-05-04T22:11:48.560Z,62.03
2023-05-04T22:14:15.506Z,61.98
2023-05-04T22:16:42.185Z,61.96
2023-05-04T22:19:08.945Z,62.11
2023-05-04T22:21:37.268Z,62.34
2023-05-04T22:24:05.562Z,62.41
2023-05-04T22:26:32.381Z,62.32
2023-05-04T22:28:59.053Z,62.31
2023-05-04T22:31:25.917Z,62.35
2023-05-04T22:33:52.683Z,62.45
2023-05-04T22:36:19.307Z,62.53
2023-05-04T22:38:46.343Z,62.54
2023-05-04T22:41:13.994Z,62.60
2023-05-04T22:43:40.615Z,62.85
2023-05-04T22:46:07.401Z,63.04
2023-05-04T22:48:34.366Z,63.31
2023-05-04T22:51:01.292Z,63.83
2023-05-04T22:53:28.023Z,64.24
2023-05-04T22:55:54.676Z,64.39
2023-05-04T22:58:21.375Z,64.69
2023-05-04T23:00:48.881Z,64.82
2023-05-04T23:03:15.661Z,64.99
2023-05-04T23:05:42.521Z,65.06
2023-05-04T23:08:09.120Z,65.27
2023-05-04T23:10:35.874Z,65.41
2023-05-04T23:13:02.602Z,65.55
2023-05-04T23:15:29.351Z,65.88
2023-05-04T23:17:55.984Z,66.00
2023-05-04T23:20:22.691Z,66.13
2023-05-04T23:22:49.327Z,66.10
2023-05-04T23:25:15.969Z,65.97
2023-05-04T23:27:42.638Z,65.86
2023-05-04T23:30:09.891Z,65.85
2023-05-04T23:32:36.771Z,65.89
2023-05-04T23:35:03.809Z,65.92
2023-05-04T23:37:33.984Z,66.03
2023-05-04T23:40:00.689Z,66.10
2023-05-04T23:42:27.528Z,66.30
2023-05-04T23:44:57.743Z,66.64
2023-05-04T23:47:24.334Z,66.98
2023-05-04T23:49:50.978Z,67.42
2023-05-04T23:52:17.716Z,67.71
2023-05-04T23:54:44.317Z,68.01
2023-05-04T23:57:11.219Z,68.25
2023-05-04T23:59:37.844Z,68.31
